createdAt,value
2019-05-26T00:02:25.142Z,22.15
2019-05-26T00:04:54.081Z,22.45
2019-05-26T00:07:30.772Z,23.05
2019-05-26T00:09:53.562Z,23.05
2019-05-26T00:12:22.447Z,25.20
2019-05-26T00:14:51.370Z,24.23
2019-05-26T00:17:20.277Z,22.00
2019-05-26T00:19:49.216Z,23.47
2019-05-26T00:22:18.191Z,21.70
2019-05-26T00:24:49.554Z,21.00
2019-05-26T00:27:18.451Z,21.65
2019-05-26T00:29:47.393Z,21.75
2019-05-26T00:32:16.290Z,23.55
2019-05-26T00:34:45.225Z,22.17
2019-05-26T00:37:14.123Z,22.02
2019-05-26T00:39:43.053Z,22.90
2019-05-26T00:42:11.977Z,22.67
2019-05-26T00:44:40.907Z,21.42
2019-05-26T00:47:09.902Z,20.02
2019-05-26T00:49:38.834Z,20.35
2019-05-26T00:52:07.724Z,20.70
2019-05-26T00:54:36.665Z,19.37
2019-05-26T00:57:05.656Z,20.00
2019-05-26T00:59:34.602Z,20.27
2019-05-26T01:02:03.488Z,18.60
2019-05-26T01:04:32.425Z,19.00
2019-05-26T01:07:01.365Z,19.73
2019-05-26T01:09:30.261Z,19.82
2019-05-26T01:11:59.202Z,20.40
2019-05-26T01:14:28.091Z,19.50
2019-05-26T01:16:57.031Z,20.27
2019-05-26T01:19:25.933Z,19.55
2019-05-26T01:21:54.865Z,18.65
2019-05-26T01:24:23.773Z,17.40
2019-05-26T01:26:52.695Z,17.62
2019-05-26T01:29:21.601Z,19.02
2019-05-26T01:31:50.532Z,18.80
2019-05-26T01:34:19.417Z,18.32
2019-05-26T01:36:48.761Z,18.57
2019-05-26T01:39:17.658Z,18.65
2019-05-26T01:41:46.590Z,17.75
2019-05-26T01:44:15.481Z,17.27
2019-05-26T01:46:44.412Z,16.27
2019-05-26T01:49:13.310Z,17.27
2019-05-26T01:51:42.257Z,16.50
2019-05-26T01:54:11.154Z,17.65
2019-05-26T01:56:40.083Z,15.83
2019-05-26T01:59:08.972Z,15.48
2019-05-26T02:01:37.910Z,15.28
2019-05-26T02:04:06.799Z,15.68
2019-05-26T02:06:35.745Z,15.30
2019-05-26T02:09:07.552Z,15.53
2019-05-26T02:11:36.475Z,17.20
2019-05-26T02:14:05.762Z,16.17
2019-05-26T02:16:34.693Z,16.20
2019-05-26T02:19:03.588Z,13.70
2019-05-26T02:21:32.513Z,16.25
2019-05-26T02:24:01.404Z,15.93
2019-05-26T02:26:30.344Z,14.63
2019-05-26T02:28:59.247Z,16.75
2019-05-26T02:31:28.186Z,14.60
2019-05-26T02:33:57.069Z,13.70
2019-05-26T02:36:26.009Z,13.60
2019-05-26T02:39:02.532Z,13.93
2019-05-26T02:41:26.865Z,14.60
2019-05-26T02:43:55.851Z,11.83
2019-05-26T02:46:24.747Z,11.48
2019-05-26T02:48:53.681Z,10.95
2019-05-26T02:51:22.575Z,11.90
2019-05-26T02:53:51.524Z,11.97
2019-05-26T02:56:20.937Z,11.53
2019-05-26T02:58:49.866Z,10.88
2019-05-26T03:01:19.069Z,12.30
2019-05-26T03:03:47.993Z,10.48
2019-05-26T03:06:17.570Z,9.83
2019-05-26T03:08:48.205Z,10.93
2019-05-26T03:11:17.903Z,9.10
2019-05-26T03:13:48.590Z,9.48
2019-05-26T03:16:20.870Z,9.58
2019-05-26T03:18:51.383Z,9.13
2019-05-26T03:21:21.676Z,10.00
2019-05-26T03:23:52.462Z,9.00
2019-05-26T03:26:21.477Z,8.55
2019-05-26T03:28:50.371Z,9.15
2019-05-26T03:31:20.104Z,8.80
2019-05-26T03:33:49.043Z,8.28
2019-05-26T03:36:17.920Z,9.45
2019-05-26T03:38:46.866Z,8.58
2019-05-26T03:41:15.766Z,7.55
2019-05-26T03:43:44.696Z,8.85
2019-05-26T03:46:17.948Z,8.55
2019-05-26T03:48:46.963Z,7.72
2019-05-26T03:51:16.134Z,8.18
2019-05-26T03:53:45.091Z,7.15
2019-05-26T03:56:15.433Z,6.92
2019-05-26T03:58:44.375Z,7.72
2019-05-26T04:01:13.364Z,7.47
2019-05-26T04:03:42.385Z,8.10
2019-05-26T04:06:11.565Z,9.08
2019-05-26T04:08:40.501Z,7.97
2019-05-26T04:11:09.424Z,7.83
2019-05-26T04:13:38.336Z,7.47
2019-05-26T04:16:07.219Z,7.80
2019-05-26T04:18:36.141Z,7.28
2019-05-26T04:21:05.075Z,7.53
2019-05-26T04:23:33.951Z,8.53
2019-05-26T04:26:02.885Z,7.90
2019-05-26T04:28:31.780Z,8.13
2019-05-26T04:31:00.707Z,7.53
2019-05-26T04:33:29.709Z,7.35
2019-05-26T04:35:58.631Z,7.35
2019-05-26T04:38:27.494Z,7.47
2019-05-26T04:40:56.430Z,7.42
2019-05-26T04:43:25.315Z,6.33
2019-05-26T04:45:54.234Z,7.97
2019-05-26T04:48:23.117Z,7.30
2019-05-26T04:50:52.044Z,6.83
2019-05-26T04:53:20.926Z,6.30
2019-05-26T04:55:49.852Z,6.53
2019-05-26T04:58:18.734Z,6.65
2019-05-26T05:00:47.658Z,6.83
2019-05-26T05:03:16.551Z,6.33
2019-05-26T05:05:45.462Z,6.12
2019-05-26T05:08:14.338Z,6.10
2019-05-26T05:10:43.267Z,6.37
2019-05-26T05:13:12.148Z,6.42
2019-05-26T05:15:41.071Z,6.55
2019-05-26T05:18:09.985Z,6.15
2019-05-26T05:20:39.213Z,6.25
2019-05-26T05:23:08.098Z,5.75
2019-05-26T05:25:37.016Z,6.45
2019-05-26T05:28:05.903Z,5.67
2019-05-26T05:30:34.832Z,5.53
2019-05-26T05:33:03.732Z,6.03
2019-05-26T05:35:32.655Z,5.67
2019-05-26T05:38:01.537Z,4.65
2019-05-26T05:40:30.457Z,5.00
2019-05-26T05:42:59.401Z,5.20
2019-05-26T05:45:28.286Z,4.78
2019-05-26T05:47:57.226Z,4.25
2019-05-26T05:50:26.117Z,4.25
2019-05-26T05:52:55.056Z,4.92
2019-05-26T05:55:23.990Z,4.47
2019-05-26T05:57:52.895Z,4.40
2019-05-26T06:00:22.091Z,3.98
2019-05-26T06:02:51.022Z,4.45
2019-05-26T06:05:20.001Z,4.55
2019-05-26T06:07:48.925Z,3.65
2019-05-26T06:10:17.909Z,5.12
2019-05-26T06:12:46.843Z,4.45
2019-05-26T06:15:17.523Z,4.75
2019-05-26T06:17:46.702Z,4.92
2019-05-26T06:20:15.796Z,6.00
2019-05-26T06:22:44.714Z,4.65
2019-05-26T06:25:13.698Z,5.42
2019-05-26T06:27:42.660Z,5.28
2019-05-26T06:30:12.064Z,5.25
2019-05-26T06:32:40.945Z,5.33
2019-05-26T06:35:10.572Z,6.05
2019-05-26T06:37:39.464Z,5.28
2019-05-26T06:40:08.604Z,6.03
2019-05-26T06:42:37.482Z,5.78
2019-05-26T06:45:09.533Z,6.03
2019-05-26T06:47:38.446Z,5.22
2019-05-26T06:50:07.553Z,5.45
2019-05-26T06:52:36.436Z,6.12
2019-05-26T06:55:08.986Z,6.28
2019-05-26T06:57:37.916Z,6.17
2019-05-26T07:00:08.620Z,5.55
2019-05-26T07:02:37.654Z,5.70
2019-05-26T07:05:08.287Z,6.12
2019-05-26T07:07:37.177Z,6.08
2019-05-26T07:10:06.901Z,6.58
2019-05-26T07:12:35.887Z,6.55
2019-05-26T07:15:07.313Z,6.08
2019-05-26T07:17:36.214Z,6.53
2019-05-26T07:20:06.747Z,6.33
2019-05-26T07:22:35.635Z,6.95
2019-05-26T07:25:06.884Z,6.62
2019-05-26T07:27:35.807Z,6.75
2019-05-26T07:30:07.416Z,6.25
2019-05-26T07:32:36.357Z,6.10
2019-05-26T07:35:08.938Z,7.17
2019-05-26T07:37:37.959Z,5.95
2019-05-26T07:40:07.421Z,5.78
2019-05-26T07:42:36.356Z,6.62
2019-05-26T07:45:06.842Z,6.90
2019-05-26T07:47:35.774Z,5.80
2019-05-26T07:50:06.668Z,6.45
2019-05-26T07:52:35.667Z,7.03
2019-05-26T07:55:08.132Z,6.67
2019-05-26T07:57:39.692Z,7.97
2019-05-26T08:00:11.393Z,5.80
2019-05-26T08:02:41.288Z,6.33
2019-05-26T08:05:13.753Z,5.35
2019-05-26T08:07:42.962Z,5.50
2019-05-26T08:10:13.444Z,5.85
2019-05-26T08:12:43.396Z,6.47
2019-05-26T08:15:13.061Z,5.30
2019-05-26T08:17:42.917Z,5.78
2019-05-26T08:20:27.270Z,5.75
2019-05-26T08:22:58.889Z,5.60
2019-05-26T08:25:28.403Z,6.12
2019-05-26T08:27:59.497Z,5.47
2019-05-26T08:30:30.014Z,6.08
2019-05-26T08:32:58.947Z,5.72
2019-05-26T08:35:27.825Z,5.25
2019-05-26T08:37:56.785Z,5.55
2019-05-26T08:40:25.654Z,6.72
2019-05-26T08:42:54.662Z,5.78
2019-05-26T08:45:23.689Z,5.12
2019-05-26T08:47:52.905Z,4.70
2019-05-26T08:50:22.925Z,5.15
2019-05-26T08:52:51.866Z,4.97
2019-05-26T08:55:21.528Z,4.97
2019-05-26T08:57:50.397Z,5.28
2019-05-26T09:00:20.542Z,5.83
2019-05-26T09:02:50.430Z,5.70
2019-05-26T09:05:20.182Z,6.10
2019-05-26T09:07:49.624Z,5.12
2019-05-26T09:10:25.207Z,5.53
2019-05-26T09:13:00.703Z,5.08
2019-05-26T09:15:25.528Z,5.03
2019-05-26T09:17:55.552Z,6.28
2019-05-26T09:20:25.285Z,5.22
2019-05-26T09:22:55.188Z,5.53
2019-05-26T09:25:24.777Z,4.20
2019-05-26T09:27:54.081Z,4.00
2019-05-26T09:30:23.734Z,4.83
2019-05-26T09:32:55.909Z,4.40
2019-05-26T09:35:27.092Z,3.90
2019-05-26T09:37:58.010Z,4.20
2019-05-26T09:40:28.023Z,4.40
2019-05-26T09:42:57.500Z,4.70
2019-05-26T09:45:26.586Z,3.80
2019-05-26T09:47:55.469Z,4.50
2019-05-26T09:50:24.533Z,4.67
2019-05-26T09:52:53.386Z,4.12
2019-05-26T09:55:22.417Z,4.45
2019-05-26T09:57:51.316Z,3.83
2019-05-26T10:00:20.791Z,4.03
2019-05-26T10:02:49.710Z,3.40
2019-05-26T10:05:18.704Z,4.03
2019-05-26T10:07:47.619Z,3.90
2019-05-26T10:10:17.346Z,2.92
2019-05-26T10:12:46.284Z,3.12
2019-05-26T10:15:17.071Z,2.60
2019-05-26T10:17:46.022Z,2.58
2019-05-26T10:20:15.003Z,2.77
2019-05-26T10:22:43.914Z,3.20
2019-05-26T10:25:13.613Z,3.72
2019-05-26T10:27:42.544Z,3.40
2019-05-26T10:30:14.367Z,3.65
2019-05-26T10:32:43.290Z,2.27
2019-05-26T10:35:12.370Z,2.72
2019-05-26T10:37:41.311Z,3.02
2019-05-26T10:40:11.104Z,2.25
2019-05-26T10:42:40.051Z,2.40
2019-05-26T10:45:09.712Z,2.40
2019-05-26T10:47:38.637Z,2.67
2019-05-26T10:50:09.600Z,2.30
2019-05-26T10:52:38.533Z,2.08
2019-05-26T10:55:10.697Z,1.90
2019-05-26T10:57:39.662Z,3.40
2019-05-26T11:00:09.711Z,2.10
2019-05-26T11:02:38.751Z,5.22
2019-05-26T11:05:09.138Z,3.62
2019-05-26T11:07:38.066Z,3.27
2019-05-26T11:10:08.268Z,1.70
2019-05-26T11:12:37.295Z,1.47
2019-05-26T11:15:08.409Z,1.62
2019-05-26T11:17:37.526Z,1.60
2019-05-26T11:20:09.345Z,1.70
2019-05-26T11:22:38.296Z,1.02
2019-05-26T11:25:07.973Z,1.37
2019-05-26T11:27:36.911Z,0.90
2019-05-26T11:30:13.844Z,1.00
2019-05-26T11:32:43.385Z,1.30
2019-05-26T11:35:13.093Z,1.72
2019-05-26T11:37:42.028Z,1.60
2019-05-26T11:40:11.487Z,1.20
2019-05-26T11:42:40.418Z,1.50
2019-05-26T11:45:09.804Z,1.80
2019-05-26T11:47:38.744Z,1.77
2019-05-26T11:50:08.473Z,2.15
2019-05-26T11:52:37.352Z,1.92
2019-05-26T11:55:07.408Z,4.62
2019-05-26T11:57:37.144Z,1.87
2019-05-26T12:00:10.716Z,1.50
2019-05-26T12:02:40.170Z,1.32
2019-05-26T12:05:09.907Z,2.50
2019-05-26T12:07:38.778Z,2.47
2019-05-26T12:10:08.205Z,1.70
2019-05-26T12:12:37.131Z,1.60
2019-05-26T12:15:08.460Z,3.90
2019-05-26T12:17:37.362Z,2.77
2019-05-26T12:20:06.492Z,1.62
2019-05-26T12:22:35.364Z,1.77
2019-05-26T12:25:07.930Z,1.30
2019-05-26T12:27:36.827Z,1.60
2019-05-26T12:30:10.249Z,3.20
2019-05-26T12:32:39.134Z,1.62
2019-05-26T12:35:17.587Z,2.37
2019-05-26T12:37:48.571Z,1.82
2019-05-26T12:40:18.207Z,1.98
2019-05-26T12:42:47.170Z,2.10
2019-05-26T12:45:16.608Z,1.80
2019-05-26T12:47:45.491Z,1.75
2019-05-26T12:50:15.730Z,1.98
2019-05-26T12:52:44.672Z,2.22
2019-05-26T12:55:13.767Z,1.57
2019-05-26T12:57:42.707Z,1.98
2019-05-26T13:00:12.523Z,2.35
2019-05-26T13:02:41.518Z,1.82
2019-05-26T13:05:10.654Z,2.25
2019-05-26T13:07:39.602Z,3.83
2019-05-26T13:10:09.480Z,1.80
2019-05-26T13:12:38.452Z,1.42
2019-05-26T13:15:11.971Z,1.60
2019-05-26T13:17:40.895Z,1.47
2019-05-26T13:20:10.777Z,1.55
2019-05-26T13:22:40.916Z,1.40
2019-05-26T13:25:12.150Z,1.55
2019-05-26T13:27:41.068Z,2.10
2019-05-26T13:30:21.241Z,1.70
2019-05-26T13:32:50.899Z,1.72
2019-05-26T13:35:20.384Z,1.55
2019-05-26T13:37:49.782Z,1.65
2019-05-26T13:40:20.780Z,2.72
2019-05-26T13:42:50.630Z,2.40
2019-05-26T13:45:22.782Z,1.62
2019-05-26T13:47:51.972Z,1.90
2019-05-26T13:50:22.132Z,2.00
2019-05-26T13:52:51.772Z,1.85
2019-05-26T13:55:24.901Z,2.00
2019-05-26T13:57:56.683Z,2.00
2019-05-26T14:00:27.626Z,3.22
2019-05-26T14:02:57.484Z,2.02
2019-05-26T14:05:28.928Z,2.22
2019-05-26T14:07:59.467Z,2.58
2019-05-26T14:10:38.197Z,2.00
2019-05-26T14:13:08.640Z,2.98
2019-05-26T14:15:39.510Z,1.95
2019-05-26T14:18:10.178Z,1.92
2019-05-26T14:20:46.090Z,2.20
2019-05-26T14:23:15.725Z,2.20
2019-05-26T14:25:45.689Z,1.87
2019-05-26T14:28:14.603Z,2.40
2019-05-26T14:30:43.494Z,4.00
2019-05-26T14:33:12.419Z,2.20
2019-05-26T14:35:41.303Z,2.95
2019-05-26T14:38:10.237Z,2.95
2019-05-26T14:40:39.136Z,2.27
2019-05-26T14:43:08.065Z,2.05
2019-05-26T14:45:51.983Z,2.55
2019-05-26T14:48:07.836Z,1.85
2019-05-26T14:50:40.286Z,2.15
2019-05-26T14:53:07.636Z,2.40
2019-05-26T14:55:36.545Z,1.60
2019-05-26T14:58:15.172Z,1.62
2019-05-26T15:00:36.583Z,1.62
2019-05-26T15:03:05.552Z,2.17
2019-05-26T15:05:34.438Z,1.85
2019-05-26T15:08:03.374Z,1.40
2019-05-26T15:10:32.263Z,2.00
2019-05-26T15:13:01.192Z,3.83
2019-05-26T15:15:30.146Z,2.10
2019-05-26T15:17:59.217Z,1.82
2019-05-26T15:20:28.135Z,2.33
2019-05-26T15:22:57.148Z,2.00
2019-05-26T15:25:26.028Z,1.85
2019-05-26T15:27:54.957Z,1.57
2019-05-26T15:30:24.109Z,1.98
2019-05-26T15:32:53.111Z,2.45
2019-05-26T15:35:22.459Z,2.45
2019-05-26T15:37:51.378Z,2.00
2019-05-26T15:40:20.279Z,1.65
2019-05-26T15:42:49.198Z,2.12
2019-05-26T15:45:18.281Z,2.08
2019-05-26T15:47:47.256Z,2.22
2019-05-26T15:50:16.458Z,1.80
2019-05-26T15:52:45.344Z,2.22
2019-05-26T15:55:14.970Z,3.45
2019-05-26T15:57:43.856Z,1.77
2019-05-26T16:00:13.280Z,1.87
2019-05-26T16:02:42.181Z,2.95
2019-05-26T16:05:11.433Z,2.22
2019-05-26T16:07:40.324Z,2.62
2019-05-26T16:10:09.964Z,2.50
2019-05-26T16:12:38.942Z,2.50
2019-05-26T16:15:09.391Z,2.30
2019-05-26T16:17:39.069Z,3.15
2019-05-26T16:20:10.625Z,3.90
2019-05-26T16:22:39.549Z,2.77
2019-05-26T16:25:08.546Z,2.50
2019-05-26T16:27:37.519Z,2.15
2019-05-26T16:30:08.454Z,1.95
2019-05-26T16:32:37.341Z,3.47
2019-05-26T16:35:06.590Z,2.62
2019-05-26T16:37:35.473Z,2.40
2019-05-26T16:40:05.776Z,3.05
2019-05-26T16:42:34.737Z,2.47
2019-05-26T16:45:04.714Z,2.22
2019-05-26T16:47:33.654Z,2.67
2019-05-26T16:50:02.602Z,2.50
2019-05-26T16:52:31.539Z,2.77
2019-05-26T16:55:00.442Z,2.45
2019-05-26T16:57:29.371Z,2.70
2019-05-26T16:59:58.251Z,2.58
2019-05-26T17:02:27.189Z,2.20
2019-05-26T17:04:56.084Z,2.70
2019-05-26T17:07:25.619Z,2.42
2019-05-26T17:09:54.530Z,2.30
2019-05-26T17:12:23.457Z,2.65
2019-05-26T17:14:52.349Z,2.60
2019-05-26T17:17:21.391Z,2.00
2019-05-26T17:19:52.698Z,2.72
2019-05-26T17:22:20.870Z,2.40
2019-05-26T17:24:49.757Z,1.95
2019-05-26T17:27:18.696Z,2.20
2019-05-26T17:29:47.645Z,1.90
2019-05-26T17:32:16.564Z,2.47
2019-05-26T17:34:45.483Z,2.70
2019-05-26T17:37:14.376Z,1.95
2019-05-26T17:39:43.335Z,1.87
2019-05-26T17:42:12.212Z,2.27
2019-05-26T17:44:41.154Z,2.22
2019-05-26T17:47:10.035Z,2.08
2019-05-26T17:49:38.968Z,2.17
2019-05-26T17:52:07.872Z,2.95
2019-05-26T17:54:36.815Z,2.45
2019-05-26T17:57:05.704Z,2.67
2019-05-26T17:59:34.670Z,4.40
2019-05-26T18:02:03.534Z,2.75
2019-05-26T18:04:32.464Z,2.37
2019-05-26T18:07:01.363Z,2.15
2019-05-26T18:09:43.237Z,2.50
2019-05-26T18:12:00.798Z,3.35
2019-05-26T18:14:29.738Z,4.50
2019-05-26T18:16:58.645Z,2.80
2019-05-26T18:19:29.827Z,3.52
2019-05-26T18:21:58.188Z,2.65
2019-05-26T18:24:27.162Z,2.40
2019-05-26T18:26:56.022Z,2.77
2019-05-26T18:29:24.957Z,2.70
2019-05-26T18:31:53.950Z,2.52
2019-05-26T18:34:22.875Z,3.20
2019-05-26T18:36:51.794Z,2.40
2019-05-26T18:39:20.792Z,2.22
2019-05-26T18:41:49.725Z,2.72
2019-05-26T18:44:18.649Z,2.37
2019-05-26T18:46:47.679Z,2.92
2019-05-26T18:49:16.561Z,2.77
2019-05-26T18:51:45.492Z,2.25
2019-05-26T18:54:14.377Z,3.05
2019-05-26T18:56:43.397Z,3.12
2019-05-26T18:59:12.284Z,3.15
2019-05-26T19:01:41.226Z,2.87
2019-05-26T19:04:10.114Z,3.22
2019-05-26T19:06:39.050Z,3.37
2019-05-26T19:09:09.545Z,3.92
2019-05-26T19:11:38.562Z,3.35
2019-05-26T19:14:07.644Z,3.42
2019-05-26T19:16:36.572Z,3.27
2019-05-26T19:19:05.463Z,3.70
2019-05-26T19:21:34.391Z,3.02
2019-05-26T19:24:03.274Z,3.20
2019-05-26T19:26:32.206Z,3.35
2019-05-26T19:29:01.069Z,3.60
2019-05-26T19:31:30.010Z,4.10
2019-05-26T19:33:59.395Z,4.30
2019-05-26T19:36:28.319Z,4.28
2019-05-26T19:38:57.275Z,4.20
2019-05-26T19:41:26.142Z,4.00
2019-05-26T19:43:55.080Z,4.00
2019-05-26T19:46:23.973Z,6.65
2019-05-26T19:48:52.898Z,5.17
2019-05-26T19:51:21.797Z,4.33
2019-05-26T19:53:50.739Z,3.77
2019-05-26T19:56:19.631Z,5.62
2019-05-26T19:58:48.593Z,4.62
2019-05-26T20:01:17.471Z,4.85
2019-05-26T20:03:46.409Z,5.05
2019-05-26T20:06:15.314Z,6.08
2019-05-26T20:08:44.253Z,6.72
2019-05-26T20:11:13.142Z,5.85
2019-05-26T20:13:42.066Z,5.87
2019-05-26T20:16:10.957Z,5.37
2019-05-26T20:18:40.020Z,5.87
2019-05-26T20:21:08.900Z,5.85
2019-05-26T20:23:37.829Z,6.58
2019-05-26T20:26:06.720Z,5.70
2019-05-26T20:28:35.665Z,6.00
2019-05-26T20:31:04.546Z,6.65
2019-05-26T20:33:33.490Z,6.00
2019-05-26T20:36:02.415Z,5.92
2019-05-26T20:38:31.307Z,6.40
2019-05-26T20:41:00.341Z,6.40
2019-05-26T20:43:29.225Z,6.33
2019-05-26T20:45:58.156Z,7.28
2019-05-26T20:48:27.080Z,6.78
2019-05-26T20:50:56.003Z,5.78
2019-05-26T20:53:24.887Z,6.97
2019-05-26T20:55:53.829Z,6.58
2019-05-26T20:58:22.714Z,6.72
2019-05-26T21:00:53.380Z,7.60
2019-05-26T21:03:22.183Z,7.12
2019-05-26T21:05:51.129Z,6.33
2019-05-26T21:08:20.031Z,7.28
2019-05-26T21:10:48.965Z,8.20
2019-05-26T21:13:17.903Z,7.72
2019-05-26T21:15:46.794Z,6.97
2019-05-26T21:18:15.735Z,7.62
2019-05-26T21:20:45.225Z,7.53
2019-05-26T21:23:14.158Z,7.83
2019-05-26T21:25:43.031Z,7.00
2019-05-26T21:28:12.101Z,7.65
2019-05-26T21:30:40.948Z,7.50
2019-05-26T21:33:09.948Z,7.45
2019-05-26T21:35:38.815Z,8.00
2019-05-26T21:38:07.744Z,7.37
2019-05-26T21:40:36.635Z,7.42
2019-05-26T21:43:05.567Z,8.03
2019-05-26T21:45:34.451Z,7.87
2019-05-26T21:48:03.518Z,10.13
2019-05-26T21:50:32.582Z,8.08
2019-05-26T21:53:01.481Z,7.55
2019-05-26T21:55:30.410Z,8.78
2019-05-26T21:57:59.293Z,7.40
2019-05-26T22:00:30.610Z,7.08
2019-05-26T22:02:59.503Z,7.28
2019-05-26T22:05:28.426Z,7.12
2019-05-26T22:07:57.323Z,6.70
2019-05-26T22:10:26.253Z,7.45
2019-05-26T22:12:55.133Z,7.05
2019-05-26T22:15:24.066Z,7.78
2019-05-26T22:17:52.950Z,7.03
2019-05-26T22:20:21.984Z,6.70
2019-05-26T22:22:50.862Z,7.37
2019-05-26T22:25:19.801Z,7.42
2019-05-26T22:27:48.694Z,6.60
2019-05-26T22:30:17.809Z,6.97
2019-05-26T22:32:46.692Z,6.87
2019-05-26T22:35:15.618Z,6.85
2019-05-26T22:37:44.510Z,7.20
2019-05-26T22:40:13.763Z,7.15
2019-05-26T22:42:42.648Z,7.08
2019-05-26T22:45:12.577Z,7.08
2019-05-26T22:47:41.542Z,6.30
2019-05-26T22:50:11.190Z,6.30
2019-05-26T22:52:40.195Z,8.13
2019-05-26T22:55:09.718Z,7.05
2019-05-26T22:57:38.651Z,6.12
2019-05-26T23:00:10.619Z,5.83
2019-05-26T23:02:39.665Z,8.25
2019-05-26T23:05:09.043Z,6.17
2019-05-26T23:07:37.949Z,5.85
2019-05-26T23:10:07.745Z,5.90
2019-05-26T23:12:36.662Z,6.30
2019-05-26T23:15:09.343Z,5.90
2019-05-26T23:17:57.535Z,6.33
2019-05-26T23:20:26.422Z,5.58
2019-05-26T23:22:55.364Z,6.15
2019-05-26T23:25:24.242Z,6.00
2019-05-26T23:27:53.194Z,5.58
2019-05-26T23:30:22.317Z,6.70
2019-05-26T23:32:51.244Z,6.28
2019-05-26T23:35:20.171Z,5.65
2019-05-26T23:37:49.152Z,5.92
2019-05-26T23:40:18.149Z,5.37
2019-05-26T23:42:47.072Z,5.20
2019-05-26T23:45:16.353Z,6.40
2019-05-26T23:47:45.283Z,4.87
2019-05-26T23:50:14.181Z,4.85
2019-05-26T23:52:43.114Z,5.10
2019-05-26T23:55:12.007Z,5.97
2019-05-26T23:57:40.895Z,5.05
